createdAt,value
2023-05-16T00:00:06.580Z,10.60
2023-05-16T00:01:04.157Z,10.70
2023-05-16T00:02:09.209Z,10.70
2023-05-16T00:03:03.794Z,10.70
2023-05-16T00:04:03.493Z,10.70
2023-05-16T00:05:06.095Z,10.70
2023-05-16T00:06:03.594Z,10.70
2023-05-16T00:07:03.240Z,10.70
2023-05-16T00:08:06.311Z,10.70
2023-05-16T00:09:03.710Z,10.70
2023-05-16T00:10:03.906Z,10.70
2023-05-16T00:11:03.976Z,10.70
2023-05-16T00:12:06.400Z,10.60
2023-05-16T00:13:03.947Z,10.60
2023-05-16T00:14:03.637Z,10.60
2023-05-16T00:15:03.243Z,10.70
2023-05-16T00:16:03.863Z,10.70
2023-05-16T00:17:03.575Z,10.60
2023-05-16T00:18:03.555Z,10.60
2023-05-16T00:19:06.148Z,10.60
2023-05-16T00:20:06.404Z,10.60
2023-05-16T00:21:06.361Z,10.50
2023-05-16T00:22:03.804Z,10.60
2023-05-16T00:23:03.359Z,10.60
2023-05-16T00:24:11.575Z,10.50
2023-05-16T00:25:06.551Z,10.50
2023-05-16T00:26:03.970Z,10.50
2023-05-16T00:27:03.656Z,10.50
2023-05-16T00:28:03.481Z,10.40
2023-05-16T00:29:06.545Z,10.50
2023-05-16T00:30:03.949Z,10.40
2023-05-16T00:31:04.081Z,10.50
2023-05-16T00:32:04.165Z,10.40
2023-05-16T00:33:06.128Z,10.50
2023-05-16T00:34:03.814Z,10.40
2023-05-16T00:35:03.509Z,10.40
2023-05-16T00:36:04.028Z,10.40
2023-05-16T00:37:03.987Z,10.40
2023-05-16T00:38:04.077Z,10.40
2023-05-16T00:39:06.596Z,10.40
2023-05-16T00:40:04.042Z,10.40
2023-05-16T00:41:04.011Z,10.40
2023-05-16T00:42:03.988Z,10.30
2023-05-16T00:44:06.208Z,10.30
2023-05-16T00:45:08.684Z,10.30
2023-05-16T00:46:04.082Z,10.30
2023-05-16T00:47:04.008Z,10.20
2023-05-16T00:49:06.299Z,10.20
2023-05-16T00:50:03.746Z,10.20
2023-05-16T00:51:03.288Z,10.20
2023-05-16T00:52:06.454Z,10.20
2023-05-16T00:53:04.010Z,10.20
2023-05-16T00:54:04.002Z,10.20
2023-05-16T00:56:03.757Z,10.20
2023-05-16T00:57:03.371Z,10.20
2023-05-16T00:58:06.489Z,10.20
2023-05-16T00:59:03.956Z,10.20
2023-05-16T01:00:06.235Z,10.20
2023-05-16T01:01:03.922Z,10.10
2023-05-16T01:02:03.715Z,10.20
2023-05-16T01:04:03.442Z,10.10
2023-05-16T01:05:06.098Z,10.10
2023-05-16T01:06:06.171Z,10.00
2023-05-16T01:07:03.569Z,10.00
2023-05-16T01:08:03.154Z,10.10
2023-05-16T01:09:03.753Z,10.00
2023-05-16T01:10:06.099Z,10.10
2023-05-16T01:11:03.518Z,10.00
2023-05-16T01:12:09.178Z,10.00
2023-05-16T01:13:03.607Z,10.10
2023-05-16T01:14:03.196Z,10.00
2023-05-16T01:15:06.355Z,10.00
2023-05-16T01:16:06.460Z,10.00
2023-05-16T01:17:04.075Z,9.90
2023-05-16T01:18:11.636Z,10.00
2023-05-16T01:20:03.839Z,10.00
2023-05-16T01:21:03.491Z,10.00
2023-05-16T01:22:04.104Z,10.00
2023-05-16T01:23:11.732Z,10.00
2023-05-16T01:25:03.866Z,10.00
2023-05-16T01:26:06.128Z,10.00
2023-05-16T01:27:06.211Z,9.90
2023-05-16T01:28:03.681Z,9.90
2023-05-16T01:29:03.335Z,10.00
2023-05-16T01:30:06.468Z,10.00
2023-05-16T01:31:03.924Z,10.00
2023-05-16T01:32:03.656Z,9.90
2023-05-16T01:33:06.256Z,10.00
2023-05-16T01:34:03.786Z,9.90
2023-05-16T01:35:03.315Z,9.90
2023-05-16T01:36:03.909Z,9.90
2023-05-16T01:37:06.124Z,10.00
2023-05-16T01:38:03.561Z,10.00
2023-05-16T01:39:04.172Z,10.00
2023-05-16T01:41:03.310Z,10.00
2023-05-16T01:42:03.903Z,10.00
2023-05-16T01:44:04.108Z,9.90
2023-05-16T01:45:04.092Z,10.00
2023-05-16T01:46:09.189Z,9.90
2023-05-16T01:47:03.716Z,10.00
2023-05-16T01:48:03.288Z,10.00
2023-05-16T01:49:06.543Z,10.00
2023-05-16T01:50:03.992Z,10.00
2023-05-16T01:51:03.542Z,10.10
2023-05-16T01:52:06.156Z,10.00
2023-05-16T01:53:06.124Z,10.10
2023-05-16T01:54:03.628Z,10.10
2023-05-16T01:55:08.210Z,10.00
2023-05-16T01:56:13.762Z,10.10
2023-05-16T01:57:03.203Z,10.10
2023-05-16T01:58:03.922Z,10.10
2023-05-16T01:59:03.532Z,10.10
2023-05-16T02:00:03.320Z,10.10
2023-05-16T02:01:03.986Z,10.10
2023-05-16T02:02:04.117Z,10.10
2023-05-16T02:04:06.274Z,10.20
2023-05-16T02:05:09.041Z,10.20
2023-05-16T02:06:03.451Z,10.10
2023-05-16T02:07:04.041Z,10.10
2023-05-16T02:08:04.175Z,10.20
2023-05-16T02:10:03.895Z,10.20
2023-05-16T02:11:03.429Z,10.20
2023-05-16T02:12:03.917Z,10.20
2023-05-16T02:13:06.171Z,10.10
2023-05-16T02:14:03.660Z,10.20
2023-05-16T02:15:06.192Z,10.20
2023-05-16T02:16:03.720Z,10.20
2023-05-16T02:17:03.535Z,10.20
2023-05-16T02:18:03.300Z,10.20
2023-05-16T02:19:03.960Z,10.20
2023-05-16T02:20:04.069Z,10.20
2023-05-16T02:21:09.195Z,10.30
2023-05-16T02:22:06.185Z,10.20
2023-05-16T02:23:03.651Z,10.20
2023-05-16T02:24:03.385Z,10.30
2023-05-16T02:25:04.122Z,10.30
2023-05-16T02:26:04.135Z,10.30
2023-05-16T02:27:06.542Z,10.30
2023-05-16T02:28:03.934Z,10.30
2023-05-16T02:29:03.563Z,10.30
2023-05-16T02:30:03.363Z,10.30
2023-05-16T02:31:03.980Z,10.40
2023-05-16T02:32:06.261Z,10.40
2023-05-16T02:33:03.825Z,10.40
2023-05-16T02:34:03.539Z,10.40
2023-05-16T02:35:04.122Z,10.40
2023-05-16T02:36:04.105Z,10.40
2023-05-16T02:38:03.754Z,10.40
2023-05-16T02:39:03.390Z,10.40
2023-05-16T02:40:06.601Z,10.40
2023-05-16T02:41:04.072Z,10.40
2023-05-16T02:43:03.903Z,10.40
2023-05-16T02:44:03.526Z,10.40
2023-05-16T02:45:03.187Z,10.40
2023-05-16T02:46:08.888Z,10.40
2023-05-16T02:47:03.480Z,10.40
2023-05-16T02:48:06.652Z,10.40
2023-05-16T02:49:10.849Z,10.40
2023-05-16T02:50:03.288Z,10.40
2023-05-16T02:51:06.412Z,10.40
2023-05-16T02:52:03.783Z,10.40
2023-05-16T02:53:06.193Z,10.40
2023-05-16T02:54:03.622Z,10.40
2023-05-16T02:55:20.782Z,10.50
2023-05-16T02:56:03.978Z,10.50
2023-05-16T02:57:03.963Z,10.50
2023-05-16T02:58:03.591Z,10.50
2023-05-16T02:59:03.202Z,10.50
2023-05-16T03:00:03.845Z,10.50
2023-05-16T03:02:03.302Z,10.50
2023-05-16T03:03:04.001Z,10.50
2023-05-16T03:05:04.014Z,10.40
2023-05-16T03:06:06.321Z,10.50
2023-05-16T03:07:06.311Z,10.50
2023-05-16T03:08:03.710Z,10.50
2023-05-16T03:09:06.262Z,10.40
2023-05-16T03:10:03.370Z,10.40
2023-05-16T03:11:03.986Z,10.40
2023-05-16T03:12:07.128Z,10.40
2023-05-16T03:13:03.696Z,10.40
2023-05-16T03:14:06.220Z,10.40
2023-05-16T03:15:03.663Z,10.40
2023-05-16T03:16:03.838Z,10.40
2023-05-16T03:17:03.553Z,10.40
2023-05-16T03:18:06.305Z,10.40
2023-05-16T03:19:03.989Z,10.40
2023-05-16T03:20:08.568Z,10.30
2023-05-16T03:21:04.134Z,10.30
2023-05-16T03:22:03.739Z,10.30
2023-05-16T03:23:03.450Z,10.30
2023-05-16T03:24:03.261Z,10.30
2023-05-16T03:25:06.263Z,10.30
2023-05-16T03:26:08.801Z,10.30
2023-05-16T03:27:03.359Z,10.30
2023-05-16T03:28:03.980Z,10.30
2023-05-16T03:29:03.705Z,10.30
2023-05-16T03:30:06.304Z,10.30
2023-05-16T03:31:03.866Z,10.20
2023-05-16T03:32:06.399Z,10.20
2023-05-16T03:33:09.211Z,10.20
2023-05-16T03:34:03.755Z,10.20
2023-05-16T03:35:03.300Z,10.20
2023-05-16T03:36:03.866Z,10.20
2023-05-16T03:37:08.495Z,10.20
2023-05-16T03:38:03.915Z,10.20
2023-05-16T03:39:03.531Z,10.20
2023-05-16T03:40:03.216Z,10.20
2023-05-16T03:41:06.497Z,10.20
2023-05-16T03:42:03.897Z,10.10
2023-05-16T03:43:06.244Z,10.20
2023-05-16T03:44:06.371Z,10.10
2023-05-16T03:45:03.890Z,10.10
2023-05-16T03:46:06.301Z,10.20
2023-05-16T03:47:06.426Z,10.10
2023-05-16T03:48:03.939Z,10.10
2023-05-16T03:49:06.273Z,10.20
2023-05-16T03:50:06.249Z,10.20
2023-05-16T03:51:03.686Z,10.10
2023-05-16T03:52:06.306Z,10.10
2023-05-16T03:53:06.339Z,10.20
2023-05-16T03:54:03.772Z,10.20
2023-05-16T03:55:03.432Z,10.20
2023-05-16T03:56:04.168Z,10.20
2023-05-16T03:57:06.272Z,10.30
2023-05-16T03:58:03.859Z,10.20
2023-05-16T03:59:08.642Z,10.20
2023-05-16T04:00:03.993Z,10.20
2023-05-16T04:01:06.325Z,10.30
2023-05-16T04:02:08.889Z,10.30
2023-05-16T04:04:08.273Z,10.30
2023-05-16T04:05:06.381Z,10.30
2023-05-16T04:06:03.898Z,10.30
2023-05-16T04:07:06.269Z,10.30
2023-05-16T04:08:03.827Z,10.30
2023-05-16T04:09:03.535Z,10.30
2023-05-16T04:10:03.616Z,10.30
2023-05-16T04:11:06.316Z,10.40
2023-05-16T04:12:03.799Z,10.40
2023-05-16T04:13:03.723Z,10.40
2023-05-16T04:14:06.645Z,10.40
2023-05-16T04:15:06.300Z,10.40
2023-05-16T04:16:08.805Z,10.40
2023-05-16T04:17:06.350Z,10.40
2023-05-16T04:18:03.909Z,10.40
2023-05-16T04:19:06.345Z,10.50
2023-05-16T04:20:07.324Z,10.50
2023-05-16T04:22:06.278Z,10.50
2023-05-16T04:24:03.165Z,10.50
2023-05-16T04:25:06.644Z,10.60
2023-05-16T04:26:03.513Z,10.60
2023-05-16T04:27:04.100Z,10.60
2023-05-16T04:28:03.755Z,10.60
2023-05-16T04:29:03.285Z,10.70
2023-05-16T04:30:03.868Z,10.70
2023-05-16T04:31:03.543Z,10.70
2023-05-16T04:32:03.318Z,10.70
2023-05-16T04:33:03.932Z,10.80
2023-05-16T04:34:03.638Z,10.80
2023-05-16T04:35:06.311Z,10.80
2023-05-16T04:36:03.780Z,10.80
2023-05-16T04:37:03.300Z,10.90
2023-05-16T04:38:03.927Z,10.90
2023-05-16T04:39:04.055Z,10.90
2023-05-16T04:40:03.667Z,11.00
2023-05-16T04:41:03.331Z,11.00
2023-05-16T04:42:03.902Z,11.00
2023-05-16T04:43:08.631Z,11.10
2023-05-16T04:44:06.342Z,11.10
2023-05-16T04:45:03.824Z,11.10
2023-05-16T04:46:03.501Z,11.10
2023-05-16T04:47:04.086Z,11.20
2023-05-16T04:48:06.389Z,11.20
2023-05-16T04:49:06.487Z,11.20
2023-05-16T04:50:03.984Z,11.20
2023-05-16T04:51:03.619Z,11.30
2023-05-16T04:52:03.138Z,11.30
2023-05-16T04:53:03.709Z,11.30
2023-05-16T04:54:03.456Z,11.30
2023-05-16T04:55:04.055Z,11.30
2023-05-16T04:56:03.638Z,11.40
2023-05-16T04:57:03.349Z,11.40
2023-05-16T04:58:09.097Z,11.40
2023-05-16T04:59:06.322Z,11.40
2023-05-16T05:00:03.929Z,11.40
2023-05-16T05:01:03.635Z,11.40
2023-05-16T05:03:03.802Z,11.40
2023-05-16T05:04:06.326Z,11.40
2023-05-16T05:05:03.908Z,11.50
2023-05-16T05:06:04.010Z,11.50
2023-05-16T05:08:03.802Z,11.60
2023-05-16T05:09:03.494Z,11.70
2023-05-16T05:10:04.119Z,11.80
2023-05-16T05:11:08.811Z,12.10
2023-05-16T05:12:03.251Z,12.10
2023-05-16T05:13:06.350Z,12.40
2023-05-16T05:14:03.794Z,12.40
2023-05-16T05:15:03.380Z,12.50
2023-05-16T05:16:04.019Z,12.50
2023-05-16T05:17:03.721Z,12.60
2023-05-16T05:18:06.576Z,12.60
2023-05-16T05:19:06.381Z,12.60
2023-05-16T05:20:06.489Z,12.60
2023-05-16T05:21:03.972Z,12.50
2023-05-16T05:22:03.625Z,12.50
2023-05-16T05:23:06.392Z,12.50
2023-05-16T05:24:03.828Z,12.50
2023-05-16T05:25:03.558Z,12.50
2023-05-16T05:26:03.287Z,12.40
2023-05-16T05:27:06.515Z,12.40
2023-05-16T05:28:04.016Z,12.40
2023-05-16T05:29:05.609Z,12.40
2023-05-16T05:30:06.412Z,12.30
2023-05-16T05:31:06.714Z,12.30
2023-05-16T05:33:06.462Z,12.30
2023-05-16T05:34:06.573Z,12.20
2023-05-16T05:35:04.059Z,12.20
2023-05-16T05:36:04.174Z,12.20
2023-05-16T05:37:06.389Z,12.10
2023-05-16T05:38:03.757Z,12.10
2023-05-16T05:39:03.405Z,12.00
2023-05-16T05:40:03.951Z,12.00
2023-05-16T05:41:08.701Z,11.90
2023-05-16T05:42:03.136Z,11.90
2023-05-16T05:43:03.687Z,11.80
2023-05-16T05:44:03.358Z,11.80
2023-05-16T05:45:04.037Z,11.80
2023-05-16T05:46:06.401Z,11.70
2023-05-16T05:47:06.719Z,11.60
2023-05-16T05:49:03.796Z,11.60
2023-05-16T05:50:03.313Z,11.60
2023-05-16T05:51:03.905Z,11.60
2023-05-16T05:52:06.380Z,11.50
2023-05-16T05:53:06.395Z,11.50
2023-05-16T05:54:06.424Z,11.40
2023-05-16T05:55:03.921Z,11.40
2023-05-16T05:56:03.550Z,11.40
2023-05-16T05:57:08.194Z,11.40
2023-05-16T05:58:05.643Z,11.40
2023-05-16T05:59:03.709Z,11.40
2023-05-16T06:01:09.109Z,11.30
2023-05-16T06:02:06.434Z,11.30
2023-05-16T06:03:03.961Z,11.30
2023-05-16T06:04:03.669Z,11.30
2023-05-16T06:06:08.308Z,11.20
2023-05-16T06:07:06.373Z,11.20
2023-05-16T06:08:03.789Z,11.20
2023-05-16T06:09:06.399Z,11.20
2023-05-16T06:10:05.031Z,11.20
2023-05-16T06:12:03.299Z,11.20
2023-05-16T06:13:06.568Z,11.20
2023-05-16T06:14:06.668Z,11.20
2023-05-16T06:16:03.758Z,11.10
2023-05-16T06:18:04.016Z,11.10
2023-05-16T06:19:03.807Z,11.10
2023-05-16T06:20:03.486Z,11.10
2023-05-16T06:21:04.056Z,11.10
2023-05-16T06:22:03.633Z,11.10
2023-05-16T06:23:03.251Z,11.10
2023-05-16T06:24:03.833Z,11.10
2023-05-16T06:25:06.388Z,11.00
2023-05-16T06:26:06.440Z,10.90
2023-05-16T06:27:03.853Z,11.00
2023-05-16T06:28:03.476Z,10.90
2023-05-16T06:29:06.609Z,10.90
2023-05-16T06:30:04.094Z,10.90
2023-05-16T06:31:03.694Z,10.90
2023-05-16T06:33:03.221Z,10.90
2023-05-16T06:34:03.900Z,10.90
2023-05-16T06:35:06.421Z,11.00
2023-05-16T06:36:09.048Z,11.00
2023-05-16T06:37:06.432Z,11.00
2023-05-16T06:38:03.925Z,11.00
2023-05-16T06:39:06.451Z,11.00
2023-05-16T06:40:03.950Z,11.00
2023-05-16T06:41:03.468Z,11.00
2023-05-16T06:42:04.079Z,11.00
2023-05-16T06:44:06.447Z,10.90
2023-05-16T06:45:03.837Z,10.90
2023-05-16T06:46:03.548Z,10.90
2023-05-16T06:48:04.068Z,10.90
2023-05-16T06:49:03.967Z,10.90
2023-05-16T06:50:03.582Z,10.90
2023-05-16T06:51:06.493Z,10.90
2023-05-16T06:52:09.033Z,10.90
2023-05-16T06:53:06.422Z,10.90
2023-05-16T06:54:08.968Z,10.90
2023-05-16T06:55:06.432Z,10.90
2023-05-16T06:56:03.916Z,10.90
2023-05-16T06:57:03.442Z,11.00
2023-05-16T06:58:04.073Z,10.90
2023-05-16T07:00:11.485Z,10.90
2023-05-16T07:01:09.062Z,11.00
2023-05-16T07:02:03.654Z,11.00
2023-05-16T07:03:06.502Z,11.00
2023-05-16T07:04:06.929Z,11.00
2023-05-16T07:06:03.207Z,11.00
2023-05-16T07:07:06.441Z,11.00
2023-05-16T07:08:05.691Z,11.00
2023-05-16T07:09:06.477Z,11.00
2023-05-16T07:10:03.916Z,10.90
2023-05-16T07:11:03.466Z,11.00
2023-05-16T07:12:03.991Z,10.90
2023-05-16T07:13:03.677Z,10.90
2023-05-16T07:14:06.457Z,11.00
2023-05-16T07:15:06.493Z,11.00
2023-05-16T07:16:03.947Z,11.00
2023-05-16T07:17:06.523Z,11.00
2023-05-16T07:18:04.043Z,11.00
2023-05-16T07:19:03.835Z,11.00
2023-05-16T07:20:05.283Z,11.00
2023-05-16T07:21:03.909Z,11.00
2023-05-16T07:22:03.724Z,11.00
2023-05-16T07:23:03.564Z,11.00
2023-05-16T07:24:09.222Z,11.00
2023-05-16T07:25:03.673Z,11.00
2023-05-16T07:26:03.269Z,11.00
2023-05-16T07:27:03.803Z,11.00
2023-05-16T07:28:03.344Z,11.00
2023-05-16T07:29:03.947Z,11.00
2023-05-16T07:30:03.551Z,11.00
2023-05-16T07:31:06.713Z,10.90
2023-05-16T07:32:06.698Z,10.90
2023-05-16T07:34:06.458Z,10.90
2023-05-16T07:35:03.881Z,11.00
2023-05-16T07:36:15.141Z,11.00
2023-05-16T07:37:06.649Z,11.00
2023-05-16T07:38:06.695Z,11.00
2023-05-16T07:40:03.765Z,11.00
2023-05-16T07:41:11.013Z,11.00
2023-05-16T07:42:11.155Z,11.00
2023-05-16T07:43:03.667Z,11.00
2023-05-16T07:44:03.221Z,11.00
2023-05-16T07:45:03.810Z,11.00
2023-05-16T07:46:08.507Z,11.10
2023-05-16T07:47:06.645Z,11.10
2023-05-16T07:48:06.865Z,11.10
2023-05-16T07:50:04.076Z,11.10
2023-05-16T07:51:08.761Z,11.10
2023-05-16T07:52:03.223Z,11.10
2023-05-16T07:53:03.706Z,11.10
2023-05-16T07:54:06.530Z,11.20
2023-05-16T07:55:06.652Z,11.10
2023-05-16T07:56:04.225Z,11.10
2023-05-16T07:57:03.810Z,11.10
2023-05-16T07:58:06.495Z,11.10
2023-05-16T07:59:03.993Z,11.20
2023-05-16T08:00:06.501Z,11.20
2023-05-16T08:01:06.611Z,11.20
2023-05-16T08:02:04.218Z,11.20
2023-05-16T08:03:04.014Z,11.20
2023-05-16T08:04:04.103Z,11.20
2023-05-16T08:05:06.617Z,11.20
2023-05-16T08:07:03.837Z,11.30
2023-05-16T08:08:08.531Z,11.30
2023-05-16T08:09:06.637Z,11.30
2023-05-16T08:10:10.174Z,11.20
2023-05-16T08:11:06.557Z,11.20
2023-05-16T08:12:06.635Z,11.20
2023-05-16T08:14:03.517Z,11.10
2023-05-16T08:15:04.125Z,11.10
2023-05-16T08:16:06.577Z,11.10
2023-05-16T08:17:03.268Z,11.20
2023-05-16T08:18:03.890Z,11.10
2023-05-16T08:19:06.560Z,11.10
2023-05-16T08:20:10.800Z,11.10
2023-05-16T08:21:03.262Z,11.10
2023-05-16T08:22:03.845Z,11.10
2023-05-16T08:24:04.074Z,11.10
2023-05-16T08:25:06.523Z,11.10
2023-05-16T08:26:03.995Z,11.10
2023-05-16T08:27:06.552Z,11.10
2023-05-16T08:28:03.987Z,11.10
2023-05-16T08:29:03.624Z,11.10
2023-05-16T08:30:03.198Z,11.10
2023-05-16T08:31:03.779Z,11.10
2023-05-16T08:33:04.032Z,11.10
2023-05-16T08:34:06.512Z,11.10
2023-05-16T08:35:03.894Z,11.10
2023-05-16T08:36:03.574Z,11.10
2023-05-16T08:37:04.139Z,11.10
2023-05-16T08:38:06.523Z,11.10
2023-05-16T08:39:06.534Z,11.20
2023-05-16T08:40:03.956Z,11.20
2023-05-16T08:42:06.644Z,11.20
2023-05-16T08:43:04.411Z,11.20
2023-05-16T08:44:06.518Z,11.20
2023-05-16T08:45:03.999Z,11.10
2023-05-16T08:46:06.573Z,11.20
2023-05-16T08:47:04.039Z,11.20
2023-05-16T08:48:03.700Z,11.20
2023-05-16T08:50:04.020Z,11.20
2023-05-16T08:51:06.550Z,11.10
2023-05-16T08:52:04.014Z,11.20
2023-05-16T08:53:03.564Z,11.20
2023-05-16T08:54:06.611Z,11.10
2023-05-16T08:55:09.794Z,11.10
2023-05-16T08:56:03.638Z,11.10
2023-05-16T08:57:03.185Z,11.10
2023-05-16T08:58:06.572Z,11.10
2023-05-16T08:59:06.584Z,11.10
2023-05-16T09:00:04.035Z,11.10
2023-05-16T09:01:03.665Z,11.10
2023-05-16T09:02:03.365Z,11.10
2023-05-16T09:03:06.626Z,11.10
2023-05-16T09:04:06.568Z,11.10
2023-05-16T09:05:09.246Z,11.10
2023-05-16T09:06:04.152Z,11.10
2023-05-16T09:07:06.556Z,11.10
2023-05-16T09:08:03.983Z,11.10
2023-05-16T09:10:03.973Z,11.10
2023-05-16T09:11:03.568Z,11.10
2023-05-16T09:12:09.221Z,11.10
2023-05-16T09:14:03.684Z,11.20
2023-05-16T09:16:03.833Z,11.10
2023-05-16T09:18:03.486Z,11.20
2023-05-16T09:19:03.483Z,11.20
2023-05-16T09:20:08.351Z,11.20
2023-05-16T09:21:03.867Z,11.20
2023-05-16T09:22:03.527Z,11.20
2023-05-16T09:23:03.322Z,11.20
2023-05-16T09:24:03.963Z,11.20
2023-05-16T09:25:08.546Z,11.20
2023-05-16T09:26:06.604Z,11.20
2023-05-16T09:27:11.235Z,11.20
2023-05-16T09:28:03.959Z,11.20
2023-05-16T09:29:03.617Z,11.20
2023-05-16T09:30:03.178Z,11.20
2023-05-16T09:31:06.684Z,11.20
2023-05-16T09:32:03.308Z,11.20
2023-05-16T09:33:06.636Z,11.20
2023-05-16T09:34:06.614Z,11.20
2023-05-16T09:35:06.707Z,11.20
2023-05-16T09:36:06.583Z,11.20
2023-05-16T09:37:04.100Z,11.20
2023-05-16T09:38:03.742Z,11.30
2023-05-16T09:39:08.418Z,11.30
2023-05-16T09:40:03.902Z,11.30
2023-05-16T09:41:03.374Z,11.30
2023-05-16T09:42:03.908Z,11.30
2023-05-16T09:43:03.490Z,11.30
2023-05-16T09:44:04.117Z,11.30
2023-05-16T09:45:03.703Z,11.30
2023-05-16T09:46:03.296Z,11.30
2023-05-16T09:47:03.835Z,11.30
2023-05-16T09:48:06.808Z,11.30
2023-05-16T09:49:04.128Z,11.30
2023-05-16T09:50:06.575Z,11.30
2023-05-16T09:51:03.402Z,11.20
2023-05-16T09:52:06.596Z,11.20
2023-05-16T09:53:04.159Z,11.20
2023-05-16T09:54:03.909Z,11.30
2023-05-16T09:55:03.598Z,11.30
2023-05-16T09:56:03.185Z,11.30
2023-05-16T09:57:03.839Z,11.30
2023-05-16T09:58:06.647Z,11.30
2023-05-16T09:59:06.678Z,11.30
2023-05-16T10:00:15.879Z,11.30
2023-05-16T10:01:03.370Z,11.30
2023-05-16T10:02:04.120Z,11.30
2023-05-16T10:03:06.701Z,11.30
2023-05-16T10:04:03.536Z,11.30
2023-05-16T10:05:04.195Z,11.30
2023-05-16T10:06:03.789Z,11.30
2023-05-16T10:07:03.448Z,11.30
2023-05-16T10:08:04.066Z,11.40
2023-05-16T10:09:03.831Z,11.40
2023-05-16T10:10:03.380Z,11.40
2023-05-16T10:11:06.718Z,11.40
2023-05-16T10:12:06.669Z,11.50
2023-05-16T10:13:04.119Z,11.50
2023-05-16T10:14:04.560Z,11.50
2023-05-16T10:16:03.843Z,11.50
2023-05-16T10:17:06.633Z,11.60
2023-05-16T10:18:09.320Z,11.60
2023-05-16T10:20:11.180Z,11.60
2023-05-16T10:21:07.855Z,11.60
2023-05-16T10:22:06.641Z,11.60
2023-05-16T10:23:06.623Z,11.60
2023-05-16T10:24:04.135Z,11.60
2023-05-16T10:25:06.613Z,11.60
2023-05-16T10:26:06.745Z,11.60
2023-05-16T10:27:06.654Z,11.60
2023-05-16T10:28:04.142Z,11.60
2023-05-16T10:29:03.746Z,11.50
2023-05-16T10:30:03.433Z,11.50
2023-05-16T10:31:06.609Z,11.50
2023-05-16T10:32:04.068Z,11.50
2023-05-16T10:33:06.751Z,11.50
2023-05-16T10:34:03.314Z,11.50
2023-05-16T10:35:08.977Z,11.50
2023-05-16T10:37:03.979Z,11.50
2023-05-16T10:38:04.541Z,11.50
2023-05-16T10:39:03.370Z,11.50
2023-05-16T10:40:03.907Z,11.50
2023-05-16T10:41:03.498Z,11.50
2023-05-16T10:42:04.099Z,11.60
2023-05-16T10:43:06.657Z,11.60
2023-05-16T10:44:04.102Z,11.60
2023-05-16T10:45:05.691Z,11.60
2023-05-16T10:46:04.035Z,11.60
2023-05-16T10:47:03.612Z,11.60
2023-05-16T10:48:03.262Z,11.70
2023-05-16T10:49:03.929Z,11.70
2023-05-16T10:51:04.401Z,11.80
2023-05-16T10:52:04.128Z,11.80
2023-05-16T10:53:03.773Z,11.80
2023-05-16T10:54:03.458Z,11.90
2023-05-16T10:55:06.673Z,12.00
2023-05-16T10:56:04.089Z,11.90
2023-05-16T10:57:08.748Z,12.00
2023-05-16T10:59:03.690Z,12.00
2023-05-16T11:00:03.405Z,12.00
2023-05-16T11:01:06.720Z,12.10
2023-05-16T11:03:06.813Z,12.10
2023-05-16T11:04:08.339Z,12.10
2023-05-16T11:05:03.816Z,12.10
2023-05-16T11:06:03.381Z,12.10
2023-05-16T11:07:06.664Z,12.00
2023-05-16T11:08:06.660Z,12.00
2023-05-16T11:09:06.751Z,12.00
2023-05-16T11:11:08.386Z,11.90
2023-05-16T11:12:04.059Z,11.90
2023-05-16T11:13:06.701Z,11.80
2023-05-16T11:15:03.757Z,11.80
2023-05-16T11:17:03.873Z,11.80
2023-05-16T11:19:03.278Z,11.80
2023-05-16T11:20:03.917Z,11.80
2023-05-16T11:21:06.705Z,11.80
2023-05-16T11:22:03.252Z,11.80
2023-05-16T11:23:06.701Z,11.80
2023-05-16T11:25:03.764Z,11.80
2023-05-16T11:26:08.496Z,11.90
2023-05-16T11:27:06.691Z,11.90
2023-05-16T11:29:03.746Z,11.90
2023-05-16T11:30:04.107Z,11.90
2023-05-16T11:31:03.972Z,12.00
2023-05-16T11:32:03.674Z,12.00
2023-05-16T11:34:03.226Z,12.00
2023-05-16T11:35:03.817Z,12.00
2023-05-16T11:36:14.292Z,12.00
2023-05-16T11:37:04.125Z,12.10
2023-05-16T11:38:03.720Z,12.10
2023-05-16T11:39:03.233Z,12.10
2023-05-16T11:40:06.724Z,12.10
2023-05-16T11:41:03.465Z,12.10
2023-05-16T11:42:04.032Z,12.10
2023-05-16T11:43:05.196Z,12.10
2023-05-16T11:44:06.737Z,12.20
2023-05-16T11:45:06.726Z,12.20
2023-05-16T11:46:03.200Z,12.10
2023-05-16T11:47:06.865Z,12.20
2023-05-16T11:48:08.564Z,12.20
2023-05-16T11:49:08.253Z,12.20
2023-05-16T11:50:06.746Z,12.20
2023-05-16T11:51:09.338Z,12.10
2023-05-16T11:52:03.795Z,12.10
2023-05-16T11:53:03.447Z,12.10
2023-05-16T11:54:04.118Z,12.10
2023-05-16T11:55:06.711Z,12.10
2023-05-16T11:56:03.320Z,12.10
2023-05-16T11:57:03.940Z,12.00
2023-05-16T11:58:03.518Z,12.00
2023-05-16T11:59:06.750Z,12.00
2023-05-16T12:00:06.750Z,11.90
2023-05-16T12:01:06.820Z,11.90
2023-05-16T12:02:03.343Z,11.90
2023-05-16T12:03:04.058Z,11.90
2023-05-16T12:04:03.711Z,11.90
2023-05-16T12:05:04.044Z,11.90
2023-05-16T12:06:06.716Z,11.90
2023-05-16T12:08:03.834Z,11.90
2023-05-16T12:09:06.765Z,11.90
2023-05-16T12:10:06.718Z,11.80
2023-05-16T12:11:03.947Z,11.80
2023-05-16T12:12:06.836Z,11.80
2023-05-16T12:13:06.746Z,11.80
2023-05-16T12:14:06.776Z,11.80
2023-05-16T12:15:03.276Z,11.80
2023-05-16T12:16:03.316Z,11.80
2023-05-16T12:17:04.053Z,11.80
2023-05-16T12:18:03.701Z,11.80
2023-05-16T12:19:03.344Z,11.80
2023-05-16T12:20:06.764Z,11.90
2023-05-16T12:21:08.261Z,11.90
2023-05-16T12:22:06.712Z,11.90
2023-05-16T12:23:03.237Z,11.90
2023-05-16T12:24:03.851Z,11.90
2023-05-16T12:25:03.993Z,11.90
2023-05-16T12:26:03.664Z,11.90
2023-05-16T12:27:03.294Z,11.90
2023-05-16T12:28:03.936Z,11.90
2023-05-16T12:29:06.757Z,11.90
2023-05-16T12:30:08.230Z,11.90
2023-05-16T12:31:09.413Z,11.90
2023-05-16T12:33:06.967Z,11.80
2023-05-16T12:35:03.280Z,11.80
2023-05-16T12:36:06.773Z,11.80
2023-05-16T12:37:03.408Z,11.80
2023-05-16T12:38:04.027Z,11.80
2023-05-16T12:39:07.259Z,11.80
2023-05-16T12:40:03.624Z,11.70
2023-05-16T12:41:06.764Z,11.70
2023-05-16T12:42:13.277Z,11.70
2023-05-16T12:43:06.741Z,11.70
2023-05-16T12:44:03.173Z,11.70
2023-05-16T12:45:03.764Z,11.70
2023-05-16T12:46:08.380Z,11.70
2023-05-16T12:47:03.992Z,11.60
2023-05-16T12:48:03.558Z,11.60
2023-05-16T12:49:04.127Z,11.60
2023-05-16T12:50:08.844Z,11.60
2023-05-16T12:51:06.771Z,11.60
2023-05-16T12:52:03.186Z,11.60
2023-05-16T12:53:08.840Z,11.60
2023-05-16T12:54:09.644Z,11.60
2023-05-16T12:55:09.076Z,11.70
2023-05-16T12:56:03.661Z,11.70
2023-05-16T12:57:03.170Z,11.70
2023-05-16T12:58:06.831Z,11.70
2023-05-16T13:00:06.789Z,11.70
2023-05-16T13:01:06.817Z,11.70
2023-05-16T13:02:03.398Z,11.70
2023-05-16T13:03:06.852Z,11.70
2023-05-16T13:04:06.852Z,11.70
2023-05-16T13:06:04.151Z,11.70
2023-05-16T13:07:03.749Z,11.70
2023-05-16T13:08:03.275Z,11.70
2023-05-16T13:09:03.848Z,11.70
2023-05-16T13:10:03.470Z,11.70
2023-05-16T13:11:04.138Z,11.70
2023-05-16T13:12:04.025Z,11.60
2023-05-16T13:13:06.804Z,11.70
2023-05-16T13:14:03.279Z,11.70
2023-05-16T13:15:03.860Z,11.60
2023-05-16T13:16:08.688Z,11.60
2023-05-16T13:18:03.799Z,11.60
2023-05-16T13:19:08.602Z,11.60
2023-05-16T13:20:03.144Z,11.60
2023-05-16T13:21:06.816Z,11.60
2023-05-16T13:22:03.271Z,11.60
2023-05-16T13:23:03.957Z,11.60
2023-05-16T13:24:06.803Z,11.60
2023-05-16T13:25:06.803Z,11.60
2023-05-16T13:26:03.229Z,11.60
2023-05-16T13:27:06.827Z,11.60
2023-05-16T13:29:04.007Z,11.60
2023-05-16T13:30:06.819Z,11.60
2023-05-16T13:31:06.822Z,11.70
2023-05-16T13:32:03.561Z,11.70
2023-05-16T13:33:09.198Z,11.70
2023-05-16T13:34:03.823Z,11.70
2023-05-16T13:35:03.456Z,11.70
2023-05-16T13:36:04.027Z,11.70
2023-05-16T13:37:06.814Z,11.70
2023-05-16T13:38:06.840Z,11.80
2023-05-16T13:39:03.282Z,11.80
2023-05-16T13:40:06.827Z,11.80
2023-05-16T13:41:06.840Z,11.80
2023-05-16T13:42:03.324Z,11.80
2023-05-16T13:43:06.798Z,11.80
2023-05-16T13:44:03.384Z,11.80
2023-05-16T13:45:06.832Z,11.80
2023-05-16T13:47:11.346Z,11.80
2023-05-16T13:49:03.320Z,11.90
2023-05-16T13:50:04.171Z,11.90
2023-05-16T13:51:03.867Z,12.00
2023-05-16T13:52:03.393Z,12.00
2023-05-16T13:53:03.932Z,12.00
2023-05-16T13:55:03.997Z,12.10
2023-05-16T13:56:08.802Z,12.20
2023-05-16T13:57:03.356Z,12.20
2023-05-16T13:58:03.951Z,12.20
2023-05-16T13:59:06.793Z,12.30